sensor_id;sensor_type;location;lat;lon;timestamp;temperature;humidity
42135;DHT22;28312;43.460;11.810;2023-03-20T00:00:47;11.80;80.80
42135;DHT22;28312;43.460;11.810;2023-03-20T00:04:52;11.80;81.10
42135;DHT22;28312;43.460;11.810;2023-03-20T00:08:56;11.70;81.40
42135;DHT22;28312;43.460;11.810;2023-03-20T00:12:59;11.70;81.70
42135;DHT22;28312;43.460;11.810;2023-03-20T00:17:10;11.70;81.90
42135;DHT22;28312;43.460;11.810;2023-03-20T00:21:20;11.70;82.30
42135;DHT22;28312;43.460;11.810;2023-03-20T00:25:24;11.60;82.50
42135;DHT22;28312;43.460;11.810;2023-03-20T00:29:30;11.60;82.90
42135;DHT22;28312;43.460;11.810;2023-03-20T00:33:35;11.60;83.10
42135;DHT22;28312;43.460;11.810;2023-03-20T00:37:40;11.50;83.20
42135;DHT22;28312;43.460;11.810;2023-03-20T00:41:48;11.50;83.30
42135;DHT22;28312;43.460;11.810;2023-03-20T00:45:52;11.60;83.50
42135;DHT22;28312;43.460;11.810;2023-03-20T00:49:55;11.60;83.60
42135;DHT22;28312;43.460;11.810;2023-03-20T00:54:00;11.60;83.70
42135;DHT22;28312;43.460;11.810;2023-03-20T00:58:05;11.50;83.80
42135;DHT22;28312;43.460;11.810;2023-03-20T01:02:10;11.60;83.90
42135;DHT22;28312;43.460;11.810;2023-03-20T01:06:14;11.60;84.10
42135;DHT22;28312;43.460;11.810;2023-03-20T01:10:19;11.60;84.20
42135;DHT22;28312;43.460;11.810;2023-03-20T01:14:22;11.50;84.20
42135;DHT22;28312;43.460;11.810;2023-03-20T01:18:26;11.50;84.30
42135;DHT22;28312;43.460;11.810;2023-03-20T01:22:30;11.50;84.50
42135;DHT22;28312;43.460;11.810;2023-03-20T01:26:39;11.50;84.50
42135;DHT22;28312;43.460;11.810;2023-03-20T01:30:45;11.50;84.60
42135;DHT22;28312;43.460;11.810;2023-03-20T01:34:49;11.50;84.70
42135;DHT22;28312;43.460;11.810;2023-03-20T01:38:56;11.50;84.70
42135;DHT22;28312;43.460;11.810;2023-03-20T01:43:01;11.50;84.80
42135;DHT22;28312;43.460;11.810;2023-03-20T01:47:14;11.60;84.80
42135;DHT22;28312;43.460;11.810;2023-03-20T01:51:27;11.50;84.80
42135;DHT22;28312;43.460;11.810;2023-03-20T01:55:37;11.50;84.90
42135;DHT22;28312;43.460;11.810;2023-03-20T02:00:19;11.50;85.10
42135;DHT22;28312;43.460;11.810;2023-03-20T02:04:29;11.50;85.20
42135;DHT22;28312;43.460;11.810;2023-03-20T02:08:48;11.60;85.20
42135;DHT22;28312;43.460;11.810;2023-03-20T02:12:54;11.60;85.20
42135;DHT22;28312;43.460;11.810;2023-03-20T02:17:06;11.60;85.20
42135;DHT22;28312;43.460;11.810;2023-03-20T02:26:06;11.60;85.20
42135;DHT22;28312;43.460;11.810;2023-03-20T02:40:11;11.60;85.30
42135;DHT22;28312;43.460;11.810;2023-03-20T02:44:35;11.60;85.40
42135;DHT22;28312;43.460;11.810;2023-03-20T02:49:38;11.50;85.40
42135;DHT22;28312;43.460;11.810;2023-03-20T02:53:38;11.50;85.50
42135;DHT22;28312;43.460;11.810;2023-03-20T02:58:00;11.50;85.60
42135;DHT22;28312;43.460;11.810;2023-03-20T03:02:12;11.50;85.70
42135;DHT22;28312;43.460;11.810;2023-03-20T03:06:30;11.50;85.80
42135;DHT22;28312;43.460;11.810;2023-03-20T03:10:42;11.50;85.90
42135;DHT22;28312;43.460;11.810;2023-03-20T03:14:52;11.50;85.80
42135;DHT22;28312;43.460;11.810;2023-03-20T03:19:18;11.50;85.80
42135;DHT22;28312;43.460;11.810;2023-03-20T03:23:33;11.50;86.00
42135;DHT22;28312;43.460;11.810;2023-03-20T03:27:42;11.50;86.00
42135;DHT22;28312;43.460;11.810;2023-03-20T03:31:47;11.50;86.00
42135;DHT22;28312;43.460;11.810;2023-03-20T03:35:59;11.50;86.00
42135;DHT22;28312;43.460;11.810;2023-03-20T03:44:38;11.40;86.40
42135;DHT22;28312;43.460;11.810;2023-03-20T03:48:48;11.40;86.70
42135;DHT22;28312;43.460;11.810;2023-03-20T03:52:57;11.30;86.60
42135;DHT22;28312;43.460;11.810;2023-03-20T03:57:04;11.30;86.50
42135;DHT22;28312;43.460;11.810;2023-03-20T04:01:11;11.40;86.80
42135;DHT22;28312;43.460;11.810;2023-03-20T04:05:18;11.30;86.80
42135;DHT22;28312;43.460;11.810;2023-03-20T04:09:22;11.30;86.90
42135;DHT22;28312;43.460;11.810;2023-03-20T04:13:26;11.20;87.10
42135;DHT22;28312;43.460;11.810;2023-03-20T04:17:29;11.20;87.00
42135;DHT22;28312;43.460;11.810;2023-03-20T04:21:35;11.20;87.10
42135;DHT22;28312;43.460;11.810;2023-03-20T04:25:41;11.10;87.30
42135;DHT22;28312;43.460;11.810;2023-03-20T04:29:45;11.20;87.40
42135;DHT22;28312;43.460;11.810;2023-03-20T04:34:06;11.20;87.50
42135;DHT22;28312;43.460;11.810;2023-03-20T04:38:28;11.10;87.60
42135;DHT22;28312;43.460;11.810;2023-03-20T04:42:32;11.10;87.60
42135;DHT22;28312;43.460;11.810;2023-03-20T04:46:39;11.10;87.60
42135;DHT22;28312;43.460;11.810;2023-03-20T04:50:49;11.10;87.80
42135;DHT22;28312;43.460;11.810;2023-03-20T04:54:58;11.10;87.90
42135;DHT22;28312;43.460;11.810;2023-03-20T04:59:02;11.10;88.10
42135;DHT22;28312;43.460;11.810;2023-03-20T05:03:06;11.00;88.20
42135;DHT22;28312;43.460;11.810;2023-03-20T05:07:09;11.00;88.30
42135;DHT22;28312;43.460;11.810;2023-03-20T05:11:23;11.00;88.40
42135;DHT22;28312;43.460;11.810;2023-03-20T05:15:52;11.00;88.60
42135;DHT22;28312;43.460;11.810;2023-03-20T05:20:16;11.00;88.60
42135;DHT22;28312;43.460;11.810;2023-03-20T05:24:39;11.00;88.60
42135;DHT22;28312;43.460;11.810;2023-03-20T05:28:51;11.00;88.70
42135;DHT22;28312;43.460;11.810;2023-03-20T05:33:14;10.90;88.80
42135;DHT22;28312;43.460;11.810;2023-03-20T05:37:38;10.80;89.10
42135;DHT22;28312;43.460;11.810;2023-03-20T05:42:05;10.90;89.30
42135;DHT22;28312;43.460;11.810;2023-03-20T05:46:35;11.00;89.40
42135;DHT22;28312;43.460;11.810;2023-03-20T05:50:58;10.90;89.30
42135;DHT22;28312;43.460;11.810;2023-03-20T05:55:22;10.90;89.50
42135;DHT22;28312;43.460;11.810;2023-03-20T05:59:46;11.00;89.60
42135;DHT22;28312;43.460;11.810;2023-03-20T06:04:09;11.00;89.50
42135;DHT22;28312;43.460;11.810;2023-03-20T06:08:43;11.00;89.60
42135;DHT22;28312;43.460;11.810;2023-03-20T06:12:47;11.10;89.50
42135;DHT22;28312;43.460;11.810;2023-03-20T06:16:51;11.00;89.40
42135;DHT22;28312;43.460;11.810;2023-03-20T06:20:56;11.00;89.60
42135;DHT22;28312;43.460;11.810;2023-03-20T06:25:05;11.00;89.80
42135;DHT22;28312;43.460;11.810;2023-03-20T06:29:15;11.00;90.00
42135;DHT22;28312;43.460;11.810;2023-03-20T06:33:19;11.10;89.90
42135;DHT22;28312;43.460;11.810;2023-03-20T06:37:34;11.10;89.80
42135;DHT22;28312;43.460;11.810;2023-03-20T06:41:47;11.20;89.90
42135;DHT22;28312;43.460;11.810;2023-03-20T06:45:51;11.10;90.10
42135;DHT22;28312;43.460;11.810;2023-03-20T06:49:57;11.10;90.10
42135;DHT22;28312;43.460;11.810;2023-03-20T06:54:00;11.20;90.20
42135;DHT22;28312;43.460;11.810;2023-03-20T06:58:05;11.20;90.30
42135;DHT22;28312;43.460;11.810;2023-03-20T07:02:10;11.20;90.50
42135;DHT22;28312;43.460;11.810;2023-03-20T07:06:14;11.20;90.80
42135;DHT22;28312;43.460;11.810;2023-03-20T07:10:20;11.20;90.90
42135;DHT22;28312;43.460;11.810;2023-03-20T07:14:28;11.20;90.50
42135;DHT22;28312;43.460;11.810;2023-03-20T07:18:36;11.20;90.60
42135;DHT22;28312;43.460;11.810;2023-03-20T07:22:40;11.20;90.60
42135;DHT22;28312;43.460;11.810;2023-03-20T07:26:50;11.20;90.70
42135;DHT22;28312;43.460;11.810;2023-03-20T07:30:55;11.20;90.80
42135;DHT22;28312;43.460;11.810;2023-03-20T07:35:00;11.20;90.90
42135;DHT22;28312;43.460;11.810;2023-03-20T07:39:04;11.20;90.90
42135;DHT22;28312;43.460;11.810;2023-03-20T07:43:10;11.20;91.00
42135;DHT22;28312;43.460;11.810;2023-03-20T07:47:43;11.20;91.10
42135;DHT22;28312;43.460;11.810;2023-03-20T07:51:48;11.20;91.30
42135;DHT22;28312;43.460;11.810;2023-03-20T07:55:52;11.30;91.40
42135;DHT22;28312;43.460;11.810;2023-03-20T07:59:57;11.30;91.40
42135;DHT22;28312;43.460;11.810;2023-03-20T08:04:00;11.40;91.50
42135;DHT22;28312;43.460;11.810;2023-03-20T08:08:04;11.50;91.40
42135;DHT22;28312;43.460;11.810;2023-03-20T08:12:08;11.40;91.20
42135;DHT22;28312;43.460;11.810;2023-03-20T08:16:11;11.40;91.30
42135;DHT22;28312;43.460;11.810;2023-03-20T08:20:15;11.50;91.30
42135;DHT22;28312;43.460;11.810;2023-03-20T08:24:20;11.50;91.40
42135;DHT22;28312;43.460;11.810;2023-03-20T08:28:24;11.50;91.20
42135;DHT22;28312;43.460;11.810;2023-03-20T08:32:48;11.50;91.20
42135;DHT22;28312;43.460;11.810;2023-03-20T08:36:51;11.50;91.50
42135;DHT22;28312;43.460;11.810;2023-03-20T08:40:55;11.60;91.70
42135;DHT22;28312;43.460;11.810;2023-03-20T08:44:58;11.70;91.70
42135;DHT22;28312;43.460;11.810;2023-03-20T08:49:02;11.80;91.80
42135;DHT22;28312;43.460;11.810;2023-03-20T08:53:07;11.90;91.90
42135;DHT22;28312;43.460;11.810;2023-03-20T08:57:10;12.00;91.80
42135;DHT22;28312;43.460;11.810;2023-03-20T09:01:14;12.10;91.70
42135;DHT22;28312;43.460;11.810;2023-03-20T09:05:18;12.20;91.70
42135;DHT22;28312;43.460;11.810;2023-03-20T09:09:22;12.20;91.60
42135;DHT22;28312;43.460;11.810;2023-03-20T09:13:34;12.20;91.50
42135;DHT22;28312;43.460;11.810;2023-03-20T09:17:38;12.20;91.40
42135;DHT22;28312;43.460;11.810;2023-03-20T09:21:41;12.20;91.40
42135;DHT22;28312;43.460;11.810;2023-03-20T09:25:46;12.30;91.60
42135;DHT22;28312;43.460;11.810;2023-03-20T09:29:50;12.30;91.50
42135;DHT22;28312;43.460;11.810;2023-03-20T09:33:53;12.40;91.60
42135;DHT22;28312;43.460;11.810;2023-03-20T09:37:58;12.50;91.60
42135;DHT22;28312;43.460;11.810;2023-03-20T09:51:37;12.70;91.60
42135;DHT22;28312;43.460;11.810;2023-03-20T09:55:24;12.70;91.50
42135;DHT22;28312;43.460;11.810;2023-03-20T09:59:33;12.70;91.50
42135;DHT22;28312;43.460;11.810;2023-03-20T10:07:45;12.80;91.50
42135;DHT22;28312;43.460;11.810;2023-03-20T10:20:49;13.20;91.60
42135;DHT22;28312;43.460;11.810;2023-03-20T10:42:38;13.40;91.40
42135;DHT22;28312;43.460;11.810;2023-03-20T10:46:47;13.40;91.30
42135;DHT22;28312;43.460;11.810;2023-03-20T10:50:56;13.50;91.20
42135;DHT22;28312;43.460;11.810;2023-03-20T10:55:09;13.50;91.30
42135;DHT22;28312;43.460;11.810;2023-03-20T11:03:33;13.90;91.60
42135;DHT22;28312;43.460;11.810;2023-03-20T11:07:38;14.10;91.70
42135;DHT22;28312;43.460;11.810;2023-03-20T11:11:45;14.30;91.80
42135;DHT22;28312;43.460;11.810;2023-03-20T11:15:51;14.60;91.70
42135;DHT22;28312;43.460;11.810;2023-03-20T11:20:02;14.80;91.50
42135;DHT22;28312;43.460;11.810;2023-03-20T11:24:21;15.10;91.50
42135;DHT22;28312;43.460;11.810;2023-03-20T11:28:36;15.30;90.50
42135;DHT22;28312;43.460;11.810;2023-03-20T11:32:45;15.30;90.20
42135;DHT22;28312;43.460;11.810;2023-03-20T11:36:58;15.30;90.60
42135;DHT22;28312;43.460;11.810;2023-03-20T11:41:24;15.40;90.80
42135;DHT22;28312;43.460;11.810;2023-03-20T11:45:34;15.50;90.40
42135;DHT22;28312;43.460;11.810;2023-03-20T11:49:46;15.50;90.50
42135;DHT22;28312;43.460;11.810;2023-03-20T11:54:04;15.60;90.70
42135;DHT22;28312;43.460;11.810;2023-03-20T11:58:14;15.60;90.60
42135;DHT22;28312;43.460;11.810;2023-03-20T12:02:21;15.70;90.80
42135;DHT22;28312;43.460;11.810;2023-03-20T12:06:35;15.70;90.90
42135;DHT22;28312;43.460;11.810;2023-03-20T12:10:41;15.80;90.90
42135;DHT22;28312;43.460;11.810;2023-03-20T12:15:17;15.90;90.90
42135;DHT22;28312;43.460;11.810;2023-03-20T12:19:27;15.90;90.50
42135;DHT22;28312;43.460;11.810;2023-03-20T12:27:46;15.90;90.60
42135;DHT22;28312;43.460;11.810;2023-03-20T12:32:02;15.90;90.60
42135;DHT22;28312;43.460;11.810;2023-03-20T12:36:14;15.80;90.50
42135;DHT22;28312;43.460;11.810;2023-03-20T12:40:22;15.80;90.70
42135;DHT22;28312;43.460;11.810;2023-03-20T12:48:51;15.80;90.90
42135;DHT22;28312;43.460;11.810;2023-03-20T12:57:26;15.70;90.50
42135;DHT22;28312;43.460;11.810;2023-03-20T13:14:36;15.80;90.60
42135;DHT22;28312;43.460;11.810;2023-03-20T13:18:48;15.80;90.80
42135;DHT22;28312;43.460;11.810;2023-03-20T13:22:56;15.90;90.70
42135;DHT22;28312;43.460;11.810;2023-03-20T13:36:05;15.90;91.10
42135;DHT22;28312;43.460;11.810;2023-03-20T13:40:49;16.10;91.70
42135;DHT22;28312;43.460;11.810;2023-03-20T13:45:00;16.50;92.00
42135;DHT22;28312;43.460;11.810;2023-03-20T13:49:23;16.90;91.30
42135;DHT22;28312;43.460;11.810;2023-03-20T13:53:37;17.00;90.50
42135;DHT22;28312;43.460;11.810;2023-03-20T13:57:52;17.10;90.20
42135;DHT22;28312;43.460;11.810;2023-03-20T14:10:35;17.00;90.40
42135;DHT22;28312;43.460;11.810;2023-03-20T14:14:40;16.90;90.30
42135;DHT22;28312;43.460;11.810;2023-03-20T14:18:47;16.90;90.40
42135;DHT22;28312;43.460;11.810;2023-03-20T14:22:52;16.90;90.80
42135;DHT22;28312;43.460;11.810;2023-03-20T14:26:57;17.20;91.80
42135;DHT22;28312;43.460;11.810;2023-03-20T14:31:24;17.90;91.50
42135;DHT22;28312;43.460;11.810;2023-03-20T14:35:28;18.50;89.80
42135;DHT22;28312;43.460;11.810;2023-03-20T14:48:55;17.50;88.50
42135;DHT22;28312;43.460;11.810;2023-03-20T14:53:18;17.30;89.30
42135;DHT22;28312;43.460;11.810;2023-03-20T14:57:32;17.30;88.80
42135;DHT22;28312;43.460;11.810;2023-03-20T15:01:58;17.20;89.10
42135;DHT22;28312;43.460;11.810;2023-03-20T15:06:05;17.10;89.50
42135;DHT22;28312;43.460;11.810;2023-03-20T15:10:10;17.00;89.30
42135;DHT22;28312;43.460;11.810;2023-03-20T15:14:25;16.80;89.60
42135;DHT22;28312;43.460;11.810;2023-03-20T15:18:30;16.60;89.00
42135;DHT22;28312;43.460;11.810;2023-03-20T15:22:33;16.40;89.50
42135;DHT22;28312;43.460;11.810;2023-03-20T15:26:37;16.30;90.00
42135;DHT22;28312;43.460;11.810;2023-03-20T15:30:40;16.20;89.70
42135;DHT22;28312;43.460;11.810;2023-03-20T15:34:46;16.00;89.60
42135;DHT22;28312;43.460;11.810;2023-03-20T15:38:50;15.80;89.80
42135;DHT22;28312;43.460;11.810;2023-03-20T15:43:05;15.70;90.10
42135;DHT22;28312;43.460;11.810;2023-03-20T15:51:12;15.50;90.30
42135;DHT22;28312;43.460;11.810;2023-03-20T15:55:18;15.40;90.70
42135;DHT22;28312;43.460;11.810;2023-03-20T15:59:25;15.40;90.80
42135;DHT22;28312;43.460;11.810;2023-03-20T16:03:30;15.30;90.90
42135;DHT22;28312;43.460;11.810;2023-03-20T16:07:34;15.20;90.80
42135;DHT22;28312;43.460;11.810;2023-03-20T16:11:40;15.20;90.90
42135;DHT22;28312;43.460;11.810;2023-03-20T16:15:45;15.10;91.00
42135;DHT22;28312;43.460;11.810;2023-03-20T16:19:48;15.10;91.30
42135;DHT22;28312;43.460;11.810;2023-03-20T16:23:57;15.10;91.60
42135;DHT22;28312;43.460;11.810;2023-03-20T16:28:03;15.10;91.50
42135;DHT22;28312;43.460;11.810;2023-03-20T16:36:34;15.10;91.40
42135;DHT22;28312;43.460;11.810;2023-03-20T16:40:37;15.10;91.40
42135;DHT22;28312;43.460;11.810;2023-03-20T16:44:41;14.90;91.30
42135;DHT22;28312;43.460;11.810;2023-03-20T16:48:45;14.90;91.30
42135;DHT22;28312;43.460;11.810;2023-03-20T16:52:55;14.80;91.20
42135;DHT22;28312;43.460;11.810;2023-03-20T16:56:59;14.70;91.40
42135;DHT22;28312;43.460;11.810;2023-03-20T17:01:05;14.70;91.40
42135;DHT22;28312;43.460;11.810;2023-03-20T17:05:12;14.50;91.30
42135;DHT22;28312;43.460;11.810;2023-03-20T17:09:20;14.50;91.20
42135;DHT22;28312;43.460;11.810;2023-03-20T17:13:24;14.40;91.00
42135;DHT22;28312;43.460;11.810;2023-03-20T17:17:27;14.20;90.70
42135;DHT22;28312;43.460;11.810;2023-03-20T17:21:31;14.00;90.30
42135;DHT22;28312;43.460;11.810;2023-03-20T17:25:35;13.80;90.10
42135;DHT22;28312;43.460;11.810;2023-03-20T17:29:39;13.70;90.30
42135;DHT22;28312;43.460;11.810;2023-03-20T17:33:44;13.40;90.00
42135;DHT22;28312;43.460;11.810;2023-03-20T17:37:48;13.10;89.70
42135;DHT22;28312;43.460;11.810;2023-03-20T17:41:52;13.00;89.70
42135;DHT22;28312;43.460;11.810;2023-03-20T17:45:57;12.70;89.30
42135;DHT22;28312;43.460;11.810;2023-03-20T17:50:02;12.40;89.10
42135;DHT22;28312;43.460;11.810;2023-03-20T17:54:06;12.20;89.40
42135;DHT22;28312;43.460;11.810;2023-03-20T17:58:18;12.00;89.90
42135;DHT22;28312;43.460;11.810;2023-03-20T18:02:23;11.90;89.90
42135;DHT22;28312;43.460;11.810;2023-03-20T18:06:29;11.80;90.10
42135;DHT22;28312;43.460;11.810;2023-03-20T18:10:33;11.80;90.30
42135;DHT22;28312;43.460;11.810;2023-03-20T18:14:40;11.80;90.50
42135;DHT22;28312;43.460;11.810;2023-03-20T18:18:44;11.70;90.30
42135;DHT22;28312;43.460;11.810;2023-03-20T18:22:48;11.70;90.50
42135;DHT22;28312;43.460;11.810;2023-03-20T18:26:52;11.60;90.50
42135;DHT22;28312;43.460;11.810;2023-03-20T18:30:56;11.60;90.50
42135;DHT22;28312;43.460;11.810;2023-03-20T18:35:00;11.60;90.50
42135;DHT22;28312;43.460;11.810;2023-03-20T18:39:04;11.60;90.30
42135;DHT22;28312;43.460;11.810;2023-03-20T18:43:09;11.60;90.20
42135;DHT22;28312;43.460;11.810;2023-03-20T18:47:13;11.60;90.20
42135;DHT22;28312;43.460;11.810;2023-03-20T18:51:17;11.50;90.10
42135;DHT22;28312;43.460;11.810;2023-03-20T18:55:23;11.40;90.20
42135;DHT22;28312;43.460;11.810;2023-03-20T18:59:27;11.30;90.40
42135;DHT22;28312;43.460;11.810;2023-03-20T19:03:31;11.30;89.90
42135;DHT22;28312;43.460;11.810;2023-03-20T19:07:41;11.20;89.50
42135;DHT22;28312;43.460;11.810;2023-03-20T19:11:44;11.10;89.30
42135;DHT22;28312;43.460;11.810;2023-03-20T19:15:48;11.00;89.40
42135;DHT22;28312;43.460;11.810;2023-03-20T19:19:51;10.80;89.20
42135;DHT22;28312;43.460;11.810;2023-03-20T19:23:57;10.80;89.30
42135;DHT22;28312;43.460;11.810;2023-03-20T19:28:02;10.70;89.40
42135;DHT22;28312;43.460;11.810;2023-03-20T19:32:06;10.60;89.50
42135;DHT22;28312;43.460;11.810;2023-03-20T19:40:36;10.50;89.30
42135;DHT22;28312;43.460;11.810;2023-03-20T19:44:45;10.50;89.20
42135;DHT22;28312;43.460;11.810;2023-03-20T19:48:49;10.40;89.10
42135;DHT22;28312;43.460;11.810;2023-03-20T19:52:55;10.30;89.10
42135;DHT22;28312;43.460;11.810;2023-03-20T19:56:59;10.20;89.10
42135;DHT22;28312;43.460;11.810;2023-03-20T20:01:03;10.10;89.20
42135;DHT22;28312;43.460;11.810;2023-03-20T20:05:23;10.00;89.00
42135;DHT22;28312;43.460;11.810;2023-03-20T20:09:29;9.90;88.90
42135;DHT22;28312;43.460;11.810;2023-03-20T20:13:33;9.80;88.50
42135;DHT22;28312;43.460;11.810;2023-03-20T20:17:57;9.60;88.40
42135;DHT22;28312;43.460;11.810;2023-03-20T20:22:00;9.40;88.80
42135;DHT22;28312;43.460;11.810;2023-03-20T20:26:24;9.30;88.70
42135;DHT22;28312;43.460;11.810;2023-03-20T20:30:34;9.20;88.70
42135;DHT22;28312;43.460;11.810;2023-03-20T20:34:38;9.10;88.60
42135;DHT22;28312;43.460;11.810;2023-03-20T20:39:03;9.10;88.40
42135;DHT22;28312;43.460;11.810;2023-03-20T20:43:07;8.90;88.20
42135;DHT22;28312;43.460;11.810;2023-03-20T20:47:14;8.90;88.00
42135;DHT22;28312;43.460;11.810;2023-03-20T20:51:18;8.70;88.30
42135;DHT22;28312;43.460;11.810;2023-03-20T20:55:22;8.80;88.70
42135;DHT22;28312;43.460;11.810;2023-03-20T20:59:27;8.70;89.00
42135;DHT22;28312;43.460;11.810;2023-03-20T21:03:30;8.70;89.20
42135;DHT22;28312;43.460;11.810;2023-03-20T21:07:34;8.70;89.40
42135;DHT22;28312;43.460;11.810;2023-03-20T21:11:38;8.70;89.40
42135;DHT22;28312;43.460;11.810;2023-03-20T21:15:41;8.70;89.80
42135;DHT22;28312;43.460;11.810;2023-03-20T21:19:48;8.80;90.00
42135;DHT22;28312;43.460;11.810;2023-03-20T21:23:52;8.80;90.10
42135;DHT22;28312;43.460;11.810;2023-03-20T21:27:55;8.80;90.10
42135;DHT22;28312;43.460;11.810;2023-03-20T21:31:59;8.80;90.20
42135;DHT22;28312;43.460;11.810;2023-03-20T21:36:04;8.80;89.90
42135;DHT22;28312;43.460;11.810;2023-03-20T21:40:08;8.80;89.80
42135;DHT22;28312;43.460;11.810;2023-03-20T21:44:13;8.70;89.50
42135;DHT22;28312;43.460;11.810;2023-03-20T21:48:36;8.70;89.40
42135;DHT22;28312;43.460;11.810;2023-03-20T21:53:00;8.60;89.30
42135;DHT22;28312;43.460;11.810;2023-03-20T21:57:23;8.50;89.40
42135;DHT22;28312;43.460;11.810;2023-03-20T22:01:47;8.40;89.60
42135;DHT22;28312;43.460;11.810;2023-03-20T22:06:11;8.50;90.00
42135;DHT22;28312;43.460;11.810;2023-03-20T22:10:35;8.60;90.30
42135;DHT22;28312;43.460;11.810;2023-03-20T22:14:58;8.70;90.40
42135;DHT22;28312;43.460;11.810;2023-03-20T22:19:22;8.70;90.30
42135;DHT22;28312;43.460;11.810;2023-03-20T22:23:45;8.60;90.00
42135;DHT22;28312;43.460;11.810;2023-03-20T22:28:09;8.50;89.80
42135;DHT22;28312;43.460;11.810;2023-03-20T22:32:33;8.40;89.70
42135;DHT22;28312;43.460;11.810;2023-03-20T22:36:58;8.30;89.00
42135;DHT22;28312;43.460;11.810;2023-03-20T22:41:22;8.20;88.90
42135;DHT22;28312;43.460;11.810;2023-03-20T22:45:47;8.00;88.70
42135;DHT22;28312;43.460;11.810;2023-03-20T22:50:10;7.80;88.40
42135;DHT22;28312;43.460;11.810;2023-03-20T22:54:13;7.70;88.50
42135;DHT22;28312;43.460;11.810;2023-03-20T22:58:16;7.60;88.80
42135;DHT22;28312;43.460;11.810;2023-03-20T23:02:21;7.60;88.90
42135;DHT22;28312;43.460;11.810;2023-03-20T23:06:27;7.50;88.70
42135;DHT22;28312;43.460;11.810;2023-03-20T23:10:40;7.50;88.70
42135;DHT22;28312;43.460;11.810;2023-03-20T23:14:44;7.40;88.40
42135;DHT22;28312;43.460;11.810;2023-03-20T23:18:48;7.20;88.40
42135;DHT22;28312;43.460;11.810;2023-03-20T23:22:52;7.20;88.40
42135;DHT22;28312;43.460;11.810;2023-03-20T23:26:55;7.20;88.50
42135;DHT22;28312;43.460;11.810;2023-03-20T23:31:13;7.10;88.60
42135;DHT22;28312;43.460;11.810;2023-03-20T23:35:18;7.00;88.50
42135;DHT22;28312;43.460;11.810;2023-03-20T23:39:21;6.90;88.80
42135;DHT22;28312;43.460;11.810;2023-03-20T23:43:25;6.80;88.80
42135;DHT22;28312;43.460;11.810;2023-03-20T23:47:29;6.80;88.70
42135;DHT22;28312;43.460;11.810;2023-03-20T23:51:46;6.70;88.50
42135;DHT22;28312;43.460;11.810;2023-03-20T23:55:53;6.70;88.30
42135;DHT22;28312;43.460;11.810;2023-03-20T23:59:59;6.60;88.30
